Warren Jr — WDH4232 — position and weather

sailwx.info

Track history (hours):
 
Tides and Currents Weather Stations Pressure Air Temp Water Temp Dewpoint Dewpoint Depression Visibility Wind Speed Wind Dir Waves Ship Positions

Warren Jr

Owner: Warren Jr, LLC, Cape May, NJ. More information available from US FCC via Universal Licensing System and Coast Guard Vessel Documentation Center.

Last reported at 2017-Nov-20 00:30 UTC. Time now 2017-Nov-21 10:03 UTC.
Position N 42°23' W 071°03'.

Length 46 m; draft 3.2 m.

MMSI: 367615560.

Date/timePositionNaut miles runAvg speedWind from/ knotsBaromVisibWave heightAir tempDewpointWater temp
2017-Nov-20 00:30N 42°23' W 071°03'0 0.0
2017-Nov-19 22:18N 42°23' W 071°03'0 0.0
2017-Nov-19 21:48N 42°23' W 071°03'0 0.0
2017-Nov-19 21:24N 42°23' W 071°03'0 0.0
2017-Nov-19 20:54N 42°23' W 071°03'0 0.0
2017-Nov-19 20:21N 42°23' W 071°03'0 0.0
2017-Nov-19 19:57N 42°23' W 071°03'0 0.0
2017-Nov-19 19:27N 42°23' W 071°03'0 0.0
2017-Nov-19 19:00N 42°23' W 071°03'0 0.0
2017-Nov-19 18:27N 42°23' W 071°03'0 0.0
2017-Nov-19 17:33N 42°23' W 071°03'0 0.0
2017-Nov-19 17:27N 42°23' W 071°03'0 0.0
2017-Nov-19 17:00N 42°23' W 071°03'0 0.0
2017-Nov-19 16:27N 42°23' W 071°03'0 0.0
2017-Nov-19 15:57N 42°23' W 071°03'0 0.0
2017-Nov-19 15:27N 42°23' W 071°03'0 0.0
2017-Nov-19 14:57N 42°23' W 071°03'0 0.0
2017-Nov-19 14:21N 42°23' W 071°03'0 0.0
2017-Nov-19 13:03N 42°23' W 071°03'0 0.0
2017-Nov-19 12:51N 42°23' W 071°03'0 0.0
2017-Nov-19 12:21N 42°23' W 071°03'0 0.0
2017-Nov-19 10:45N 42°23' W 071°03'0 0.0
2017-Nov-19 10:21N 42°23' W 071°03'0 0.0
2017-Nov-19 09:57N 42°23' W 071°03'0 0.0
2017-Nov-19 08:39N 42°23' W 071°03'0 0.0
2017-Nov-19 08:03N 42°23' W 071°03'0 0.0
2017-Nov-19 07:39N 42°23' W 071°03'0 0.0
2017-Nov-19 05:33N 42°23' W 071°03'0 0.0
2017-Nov-19 05:27N 42°23' W 071°03'0 0.0
2017-Nov-19 04:57N 42°23' W 071°03'0 0.0
2017-Nov-19 04:27N 42°23' W 071°03'0 0.0
2017-Nov-19 03:57N 42°23' W 071°03'0 0.0
2017-Nov-19 03:30N 42°23' W 071°03'0 0.0
2017-Nov-19 02:54N 42°23' W 071°03'0 0.0
2017-Nov-19 02:30N 42°23' W 071°03'0 0.0
2017-Nov-19 01:51N 42°23' W 071°03'0 0.0
2017-Nov-19 01:27N 42°23' W 071°03'2 4.9
2017-Nov-19 01:00N 42°21' W 071°01'4 8.7
2017-Nov-19 00:30N 42°22' W 070°56'5 9.9
2017-Nov-19 00:00N 42°23' W 070°49'510.1
2017-Nov-18 23:30N 42°23' W 070°42'510.1
2017-Nov-18 23:01N 42°23' W 070°35'2 4.9
2017-Nov-18 22:30N 42°22' W 070°33'1 2.2
2017-Nov-18 22:00N 42°23' W 070°32'1 1.0
2017-Nov-18 21:30N 42°22' W 070°32'1 1.1
2017-Nov-18 21:01N 42°22' W 070°32'2 3.1
2017-Nov-18 20:30N 42°23' W 070°33'1 1.0
2017-Nov-18 20:00N 42°23' W 070°33'1 2.2
2017-Nov-18 19:30N 42°22' W 070°33'1 1.1
2017-Nov-18 19:00N 42°22' W 070°32'1 1.4
2017-Nov-18 18:30N 42°21' W 070°32'0 0.2
2017-Nov-18 18:01N 42°21' W 070°32'1 2.4
2017-Nov-18 17:30N 42°23' W 070°33'0 0.9
2017-Nov-18 17:00N 42°22' W 070°32'1 2.1
2017-Nov-18 16:30N 42°21' W 070°33'2 3.9
2017-Nov-18 16:00N 42°23' W 070°34'0 0.3
2017-Nov-18 15:30N 42°23' W 070°34'5 9.6
2017-Nov-18 15:00N 42°23' W 070°40'5 9.9
2017-Nov-18 14:30N 42°23' W 070°47'5 9.6
2017-Nov-18 14:00N 42°23' W 070°53'4 8.4
2017-Nov-18 13:30N 42°20' W 070°58'4 8.4
2017-Nov-18 13:00N 42°22' W 071°03'1 1.6
2017-Nov-18 12:30N 42°23' W 071°03'0 0.0
2017-Nov-18 11:57N 42°23' W 071°03'0 0.0
2017-Nov-18 11:27N 42°23' W 071°03'0 0.0
2017-Nov-18 11:00N 42°23' W 071°03'0 0.0
2017-Nov-18 10:30N 42°23' W 071°03'0 0.0
2017-Nov-18 10:00N 42°23' W 071°03'0 0.0
2017-Nov-18 09:30N 42°23' W 071°03'0 0.0
2017-Nov-18 08:57N 42°23' W 071°03'0 0.0
2017-Nov-18 08:30N 42°23' W 071°03'0 0.0
2017-Nov-18 08:00N 42°23' W 071°03'0 0.0
2017-Nov-18 07:30N 42°23' W 071°03'0 0.0
2017-Nov-18 07:00N 42°23' W 071°03'0 0.0
2017-Nov-18 06:30N 42°23' W 071°03'0 0.0
2017-Nov-18 06:00N 42°23' W 071°03'0 0.0
2017-Nov-18 05:30N 42°23' W 071°03'0 0.0
2017-Nov-18 04:54N 42°23' W 071°03'0 0.0
2017-Nov-18 04:24N 42°23' W 071°03'0 0.0
2017-Nov-18 03:54N 42°23' W 071°03'0 0.0
2017-Nov-18 03:30N 42°23' W 071°03'0 0.0
2017-Nov-18 02:48N 42°23' W 071°03'0 0.0
2017-Nov-18 02:30N 42°23' W 071°03'0 0.0
2017-Nov-18 01:54N 42°23' W 071°03'0 0.0
2017-Nov-18 01:30N 42°23' W 071°03'0 0.0
2017-Nov-18 01:00N 42°23' W 071°03'0 0.0
2017-Nov-18 00:30N 42°23' W 071°03'0 0.0
2017-Nov-18 00:00N 42°23' W 071°03'0 0.0
2017-Nov-17 23:30N 42°23' W 071°03'0 0.0
2017-Nov-17 23:00N 42°23' W 071°03'0 0.0
2017-Nov-17 22:30N 42°23' W 071°03'0 0.0
2017-Nov-17 22:00N 42°23' W 071°03'0 0.0
2017-Nov-17 21:30N 42°23' W 071°03'0 0.0
2017-Nov-17 20:56N 42°23' W 071°03'0 0.0
2017-Nov-17 18:18N 42°23' W 071°03'0 0.0
2017-Nov-17 16:36N 42°23' W 071°03'0 0.0
2017-Nov-17 16:29N 42°23' W 071°03'0 0.0
2017-Nov-17 15:54N 42°23' W 071°03'0 0.0
2017-Nov-17 14:03N 42°23' W 071°03'0 0.0
2017-Nov-17 13:44N 42°23' W 071°03'0 0.0
2017-Nov-17 13:30N 42°23' W 071°03'0 0.0
2017-Nov-17 12:48N 42°23' W 071°03'0 0.0
2017-Nov-17 12:30N 42°23' W 071°03'0 0.0
2017-Nov-17 12:00N 42°23' W 071°03'0 0.0
2017-Nov-17 11:18N 42°23' W 071°03'0 0.0
2017-Nov-17 11:00N 42°23' W 071°03'0 0.0
2017-Nov-17 10:27N 42°23' W 071°03'0 0.0
2017-Nov-17 10:00N 42°23' W 071°03'0 0.0
2017-Nov-17 09:30N 42°23' W 071°03'0 0.0
2017-Nov-17 09:00N 42°23' W 071°03'0 0.0
2017-Nov-17 08:29N 42°23' W 071°03'0 0.0
2017-Nov-17 07:59N 42°23' W 071°03'0 0.0
2017-Nov-17 07:29N 42°23' W 071°03'0 0.0
2017-Nov-17 06:59N 42°23' W 071°03'0 0.0
2017-Nov-17 06:30N 42°23' W 071°03'0 0.0
2017-Nov-17 06:00N 42°23' W 071°03'0 0.0
2017-Nov-17 05:27N 42°23' W 071°03'0 0.0
2017-Nov-17 05:00N 42°23' W 071°03'0 0.0
2017-Nov-17 04:29N 42°23' W 071°03'0 0.0
2017-Nov-17 03:59N 42°23' W 071°03'0 0.0
2017-Nov-17 03:29N 42°23' W 071°03'0 0.0
2017-Nov-17 02:59N 42°23' W 071°03'0 0.0
2017-Nov-17 02:29N 42°23' W 071°03'0 0.0
2017-Nov-17 01:59N 42°23' W 071°03'0 0.0
2017-Nov-17 01:29N 42°23' W 071°03'0 0.0
2017-Nov-17 00:59N 42°23' W 071°03'0 0.0
2017-Nov-17 00:26N 42°23' W 071°03'0 0.0
2017-Nov-17 00:00N 42°23' W 071°03'0 0.0
2017-Nov-16 23:30N 42°23' W 071°03'0 0.0
2017-Nov-16 23:00N 42°23' W 071°03'0 0.0
2017-Nov-16 22:29N 42°23' W 071°03'0 0.0
2017-Nov-16 21:59N 42°23' W 071°03'0 0.0
2017-Nov-16 21:17N 42°23' W 071°03'0 0.0
2017-Nov-16 20:59N 42°23' W 071°03'0 0.0
2017-Nov-16 20:29N 42°23' W 071°03'0 0.0
2017-Nov-16 19:59N 42°23' W 071°03'0 0.0
2017-Nov-16 19:29N 42°23' W 071°03'0 0.0
2017-Nov-16 18:56N 42°23' W 071°03'0 0.0
2017-Nov-16 18:14N 42°23' W 071°03'0 0.0
2017-Nov-16 17:59N 42°23' W 071°03'0 0.0
2017-Nov-16 17:29N 42°23' W 071°03'0 0.0
2017-Nov-16 16:54N 42°23' W 071°03'1 2.8
2017-Nov-16 16:30N 42°22' W 071°03'4 8.5
2017-Nov-16 16:00N 42°20' W 070°57'5 9.0
2017-Nov-16 15:30N 42°23' W 070°53'4 9.0
2017-Nov-16 15:00N 42°24' W 070°47'4 8.6
2017-Nov-16 14:30N 42°24' W 070°41'4 8.8
2017-Nov-16 14:00N 42°23' W 070°35'1 2.7
2017-Nov-16 13:30N 42°23' W 070°34'1 1.0
2017-Nov-16 13:00N 42°22' W 070°33'1 1.3
2017-Nov-16 12:30N 42°23' W 070°33'2 3.2
2017-Nov-16 12:00N 42°24' W 070°34'1 1.2
2017-Nov-16 11:30N 42°24' W 070°35'0 0.9
2017-Nov-16 11:01N 42°24' W 070°35'1 1.1
2017-Nov-16 10:30N 42°23' W 070°34'1 1.1
2017-Nov-16 10:00N 42°23' W 070°33'1 2.1
2017-Nov-16 09:30N 42°22' W 070°33'2 3.6
2017-Nov-16 09:00N 42°23' W 070°35'0 0.9
2017-Nov-16 08:30N 42°23' W 070°35'0 0.9
2017-Nov-16 08:00N 42°22' W 070°34'0 0.7
2017-Nov-16 07:30N 42°22' W 070°34'1 1.9
2017-Nov-16 07:00N 42°23' W 070°35'0 0.7
2017-Nov-16 06:30N 42°23' W 070°34'0 0.6
2017-Nov-16 06:00N 42°22' W 070°34'0 0.4
2017-Nov-16 05:30N 42°22' W 070°34'0 0.2
2017-Nov-16 05:01N 42°22' W 070°34'0 0.2
2017-Nov-16 04:31N 42°22' W 070°34'0 0.3
2017-Nov-16 04:00N 42°22' W 070°34'0 0.3
2017-Nov-16 03:30N 42°22' W 070°34'1 1.0
2017-Nov-16 03:00N 42°22' W 070°34'2 3.4
2017-Nov-16 02:30N 42°22' W 070°36'0 0.5
2017-Nov-16 02:00N 42°22' W 070°36'0 0.6
2017-Nov-16 01:30N 42°22' W 070°36'0 0.6
2017-Nov-16 00:59N 42°22' W 070°35'0 0.6
2017-Nov-16 00:30N 42°22' W 070°35'0 0.6
2017-Nov-16 00:00N 42°22' W 070°34'0 0.7
2017-Nov-15 23:30N 42°22' W 070°34'0 0.9
2017-Nov-15 23:00N 42°22' W 070°35'1 2.5
2017-Nov-15 22:30N 42°22' W 070°36'0 0.7
2017-Nov-15 22:00N 42°22' W 070°36'0 0.7
2017-Nov-15 21:30N 42°22' W 070°35'0 0.3
2017-Nov-15 21:00N 42°22' W 070°35'0 0.4
2017-Nov-15 20:30N 42°22' W 070°36'0 0.7
2017-Nov-15 20:00N 42°22' W 070°35'0 0.5
2017-Nov-15 19:30N 42°22' W 070°35'0 0.9
2017-Nov-15 19:00N 42°22' W 070°36'1 2.3
2017-Nov-15 18:30N 42°22' W 070°37'1 3.0
2017-Nov-15 18:00N 42°22' W 070°36'1 2.9
2017-Nov-15 17:30N 42°23' W 070°34'0 0.9
2017-Nov-15 17:00N 42°22' W 070°34'1 1.2
2017-Nov-15 16:30N 42°23' W 070°34'1 2.2
2017-Nov-15 16:00N 42°24' W 070°33'1 2.5
2017-Nov-15 15:30N 42°23' W 070°34'0 0.6
2017-Nov-15 15:00N 42°23' W 070°34'4 8.1
2017-Nov-15 14:30N 42°23' W 070°39'5 9.1
2017-Nov-15 14:00N 42°23' W 070°45'4 8.4
2017-Nov-15 13:30N 42°23' W 070°51'5 8.5
2017-Nov-15 12:57N 42°20' W 070°56'4 7.9
2017-Nov-15 12:30N 42°21' W 071°01'3 0.8
2017-Nov-15 09:05N 42°23' W 071°03'0 0.0
2017-Nov-15 08:53N 42°23' W 071°03'0 0.0
2017-Nov-15 08:23N 42°23' W 071°03'0 0.0
2017-Nov-15 07:53N 42°23' W 071°03'0 0.0
2017-Nov-15 07:17N 42°23' W 071°03'0 0.0
2017-Nov-15 06:59N 42°23' W 071°03'0 0.0
2017-Nov-15 06:29N 42°23' W 071°03'0 0.0
2017-Nov-15 01:35N 42°23' W 071°03'0 0.0
2017-Nov-15 01:11N 42°23' W 071°03'0 0.0
2017-Nov-14 23:11N 42°23' W 071°03'0 0.0
2017-Nov-14 22:53N 42°23' W 071°03'0 0.0
2017-Nov-14 22:23N 42°23' W 071°03'0 0.0
2017-Nov-14 21:59N 42°23' W 071°03'0 0.0
2017-Nov-14 20:41N 42°23' W 071°03'0 0.0
2017-Nov-14 18:59N 42°23' W 071°03'0 0.0
2017-Nov-14 15:59N 42°23' W 071°03'0 0.0
2017-Nov-14 15:29N 42°23' W 071°03'0 0.0
2017-Nov-14 14:53N 42°23' W 071°03'0 0.0
2017-Nov-14 14:23N 42°23' W 071°03'0 0.0
2017-Nov-14 13:17N 42°23' W 071°03'0 0.0
2017-Nov-14 12:59N 42°23' W 071°03'0 0.0
2017-Nov-14 12:29N 42°23' W 071°03'0 0.0
2017-Nov-14 10:53N 42°23' W 071°03'0 0.0
2017-Nov-14 10:29N 42°23' W 071°03'0 0.0
2017-Nov-14 09:53N 42°23' W 071°03'0 0.0
2017-Nov-14 09:29N 42°23' W 071°03'0 0.0
2017-Nov-14 08:59N 42°23' W 071°03'0 0.0
2017-Nov-14 08:17N 42°23' W 071°03'0 0.0
2017-Nov-14 07:53N 42°23' W 071°03'0 0.0
2017-Nov-14 07:17N 42°23' W 071°03'0 0.0
2017-Nov-14 06:59N 42°23' W 071°03'0 0.0
2017-Nov-14 06:29N 42°23' W 071°03'0 0.0
2017-Nov-14 05:47N 42°23' W 071°03'0 0.0
2017-Nov-14 05:30N 42°23' W 071°03'2 5.0
2017-Nov-14 05:00N 42°21' W 071°01'2 4.7
2017-Nov-14 04:30N 42°20' W 070°58'4 7.9
2017-Nov-14 04:00N 42°23' W 070°54'5 9.6
2017-Nov-14 03:30N 42°25' W 070°48'4 9.0
2017-Nov-14 03:00N 42°26' W 070°42'4 7.7
2017-Nov-14 02:30N 42°26' W 070°37'3 6.8
2017-Nov-14 02:00N 42°24' W 070°33'1 2.4
2017-Nov-14 01:30N 42°23' W 070°32'2 3.3
2017-Nov-14 01:00N 42°22' W 070°33'0 0.7
2017-Nov-14 00:30N 42°22' W 070°33'0 0.9
2017-Nov-14 00:00N 42°23' W 070°32'0 0.2
2017-Nov-13 23:30N 42°23' W 070°32'0 0.7
2017-Nov-13 23:00N 42°22' W 070°32'0 0.9
2017-Nov-13 22:30N 42°23' W 070°32'0 0.9
2017-Nov-13 22:00N 42°23' W 070°32'11 0.5
2017-Nov-13 02:00N 42°21' W 070°47'0 0.3
2017-Nov-13 01:31N 42°21' W 070°47'4 7.7
2017-Nov-13 01:00N 42°23' W 070°42'4 8.6
2017-Nov-13 00:30N 42°24' W 070°37'3 5.3
2017-Nov-13 00:00N 42°24' W 070°33'0 0.1
2017-Nov-12 23:30N 42°24' W 070°33'1 1.5
2017-Nov-12 23:00N 42°23' W 070°33'0 0.8
2017-Nov-12 22:30N 42°23' W 070°33'0 0.7
2017-Nov-12 22:00N 42°23' W 070°33'1 1.4
2017-Nov-12 21:30N 42°24' W 070°33'0 0.5
2017-Nov-12 21:01N 42°24' W 070°33'0 0.7
2017-Nov-12 20:30N 42°24' W 070°33'0 0.5
2017-Nov-12 20:00N 42°24' W 070°33'0 0.6
2017-Nov-12 19:30N 42°23' W 070°32'0 0.7
2017-Nov-12 19:00N 42°23' W 070°32'0 0.9
2017-Nov-12 18:30N 42°23' W 070°33'1 1.6
2017-Nov-12 18:00N 42°23' W 070°34'2 4.5
2017-Nov-12 17:30N 42°23' W 070°37'5 9.1
2017-Nov-12 17:00N 42°24' W 070°43'5 9.1
2017-Nov-12 16:30N 42°25' W 070°49'2 3.4
2017-Nov-12 16:00N 42°25' W 070°51'0 0.0
2017-Nov-12 15:30N 42°25' W 070°51'0 0.1
2017-Nov-12 15:00N 42°25' W 070°51'0 0.1
2017-Nov-12 14:30N 42°25' W 070°51'0 0.1
2017-Nov-12 14:00N 42°25' W 070°51'0 0.2
2017-Nov-12 13:30N 42°25' W 070°51'0 0.8
2017-Nov-12 13:00N 42°25' W 070°51'0 0.3
2017-Nov-12 12:30N 42°25' W 070°51'0 0.2
2017-Nov-12 12:00N 42°25' W 070°51'1 2.9
2017-Nov-12 11:30N 42°24' W 070°52'0 0.8
2017-Nov-12 11:00N 42°24' W 070°52'4 7.6
2017-Nov-12 10:30N 42°23' W 070°47'4 8.8
2017-Nov-12 10:00N 42°23' W 070°41'4 8.6
2017-Nov-12 09:30N 42°23' W 070°35'2 3.1
2017-Nov-12 09:00N 42°24' W 070°33'1 1.2
2017-Nov-12 08:30N 42°23' W 070°34'1 1.9
2017-Nov-12 08:00N 42°23' W 070°33'1 2.1
2017-Nov-12 07:30N 42°22' W 070°33'0 0.7
2017-Nov-12 07:00N 42°22' W 070°33'0 0.4
2017-Nov-12 06:30N 42°22' W 070°33'1 1.6
2017-Nov-12 06:00N 42°23' W 070°32'0 0.4
2017-Nov-12 05:30N 42°22' W 070°32'0 0.4
2017-Nov-12 05:00N 42°23' W 070°32'0 0.5
2017-Nov-12 04:30N 42°23' W 070°32'0 0.5
2017-Nov-12 04:00N 42°22' W 070°32'1 1.7
2017-Nov-12 03:30N 42°22' W 070°33'1 1.2
2017-Nov-12 03:00N 42°22' W 070°33'0 0.4
2017-Nov-12 02:30N 42°22' W 070°33'0 0.4
2017-Nov-12 02:00N 42°22' W 070°33'0 0.4
2017-Nov-12 01:30N 42°22' W 070°33'0 0.3
2017-Nov-12 01:00N 42°22' W 070°33'0 0.4
2017-Nov-12 00:30N 42°22' W 070°33'0 0.4
2017-Nov-12 00:00N 42°22' W 070°33'0 0.5
2017-Nov-11 23:30N 42°22' W 070°33'1 1.7
2017-Nov-11 23:00N 42°21' W 070°33'0 0.6
2017-Nov-11 22:30N 42°22' W 070°33'0 0.6
2017-Nov-11 22:00N 42°22' W 070°33'0 0.4
2017-Nov-11 21:30N 42°22' W 070°33'1 1.3
2017-Nov-11 21:00N 42°22' W 070°33'0 0.5
2017-Nov-11 20:30N 42°22' W 070°33'0 0.4
2017-Nov-11 20:00N 42°22' W 070°33'0 0.3
2017-Nov-11 19:29N 42°22' W 070°33'0 0.3
2017-Nov-11 19:00N 42°22' W 070°33'1 2.8
2017-Nov-11 18:30N 42°21' W 070°34'0 0.5
2017-Nov-11 18:00N 42°21' W 070°34'0 0.9
2017-Nov-11 17:30N 42°22' W 070°34'1 1.1
2017-Nov-11 17:00N 42°22' W 070°34'1 1.6
2017-Nov-11 16:30N 42°23' W 070°34'0 0.2
2017-Nov-11 16:00N 42°23' W 070°34'3 6.8
2017-Nov-11 15:30N 42°23' W 070°38'5 9.2
2017-Nov-11 15:00N 42°23' W 070°45'5 9.3
2017-Nov-11 14:30N 42°23' W 070°51'7 9.2
2017-Nov-11 13:47N 42°20' W 070°59'3 9.2
2017-Nov-11 13:30N 42°21' W 071°02'2 2.6
2017-Nov-11 12:50N 42°23' W 071°03'0 0.0
2017-Nov-11 12:23N 42°23' W 071°03'0 0.0
2017-Nov-11 11:47N 42°23' W 071°03'0 0.0
2017-Nov-11 11:29N 42°23' W 071°03'0 0.0
2017-Nov-11 10:59N 42°23' W 071°03'0 0.0
2017-Nov-11 10:29N 42°23' W 071°03'0 0.0
2017-Nov-11 09:47N 42°23' W 071°03'0 0.0
2017-Nov-11 09:14N 42°23' W 071°03'0 0.0
2017-Nov-11 08:59N 42°23' W 071°03'0 0.0
2017-Nov-11 08:29N 42°23' W 071°03'0 0.0
2017-Nov-11 07:38N 42°23' W 071°03'0 0.0
2017-Nov-11 07:26N 42°23' W 071°03'0 0.0
2017-Nov-11 06:59N 42°23' W 071°03'0 0.0
2017-Nov-11 06:26N 42°23' W 071°03'0 0.0
2017-Nov-11 05:56N 42°23' W 071°03'0 0.0
2017-Nov-11 05:29N 42°23' W 071°03'0 0.0
2017-Nov-11 04:56N 42°23' W 071°03'0 0.0
2017-Nov-11 04:23N 42°23' W 071°03'0 0.0
2017-Nov-11 03:53N 42°23' W 071°03'0 0.0
2017-Nov-11 03:17N 42°23' W 071°03'0 0.0
2017-Nov-11 02:50N 42°23' W 071°03'0 0.0
2017-Nov-11 02:26N 42°23' W 071°03'0 0.0
2017-Nov-10 22:53N 42°23' W 071°03'0 0.0
2017-Nov-10 22:29N 42°23' W 071°03'0 0.0
2017-Nov-10 21:35N 42°23' W 071°03'0 0.0
2017-Nov-10 21:14N 42°23' W 071°03'0 0.0
2017-Nov-10 20:56N 42°23' W 071°03'0 0.0
2017-Nov-10 20:11N 42°23' W 071°03'0 0.0
2017-Nov-10 19:28N 42°23' W 071°03'0 0.0
2017-Nov-10 18:25N 42°23' W 071°03'0 0.0
2017-Nov-10 17:58N 42°23' W 071°03'0 0.0
2017-Nov-10 17:28N 42°23' W 071°03'0 0.0
2017-Nov-10 16:04N 42°23' W 071°03'0 0.0
2017-Nov-10 15:46N 42°23' W 071°03'0 0.0
2017-Nov-10 14:34N 42°23' W 071°03'0 0.0
2017-Nov-10 14:16N 42°23' W 071°03'0 0.0
2017-Nov-10 13:16N 42°23' W 071°03'0 0.0
2017-Nov-10 12:57N 42°23' W 071°03'0 0.0
2017-Nov-10 12:25N 42°23' W 071°03'0 0.0
2017-Nov-10 11:37N 42°23' W 071°03'0 0.0
2017-Nov-10 10:16N 42°23' W 071°03'0 0.0
2017-Nov-10 09:52N 42°23' W 071°03'0 0.0
2017-Nov-10 09:28N 42°23' W 071°03'0 0.0
2017-Nov-10 08:01N 42°23' W 071°03'  
Track history (hours):
 
Tides and Currents Weather Stations Pressure Air Temp Water Temp Dewpoint Dewpoint Depression Visibility Wind Speed Wind Dir Waves Ship Positions

Warren Jr

Owner: Warren Jr, LLC, Cape May, NJ. More information available from US FCC via Universal Licensing System and Coast Guard Vessel Documentation Center.

Last reported at 2017-Nov-20 00:30 UTC. Time now 2017-Nov-21 10:03 UTC.
Position N 42°23' W 071°03'.

Length 46 m; draft 3.2 m.

MMSI: 367615560.

Date/timePositionNaut miles runAvg speedWind from/ knotsBaromVisibWave heightAir tempDewpointWater temp
2017-Nov-20 00:30N 42°23' W 071°03'0 0.0
2017-Nov-19 22:18N 42°23' W 071°03'0 0.0
2017-Nov-19 21:48N 42°23' W 071°03'0 0.0
2017-Nov-19 21:24N 42°23' W 071°03'0 0.0
2017-Nov-19 20:54N 42°23' W 071°03'0 0.0
2017-Nov-19 20:21N 42°23' W 071°03'0 0.0
2017-Nov-19 19:57N 42°23' W 071°03'0 0.0
2017-Nov-19 19:27N 42°23' W 071°03'0 0.0
2017-Nov-19 19:00N 42°23' W 071°03'0 0.0
2017-Nov-19 18:27N 42°23' W 071°03'0 0.0
2017-Nov-19 17:33N 42°23' W 071°03'0 0.0
2017-Nov-19 17:27N 42°23' W 071°03'0 0.0
2017-Nov-19 17:00N 42°23' W 071°03'0 0.0
2017-Nov-19 16:27N 42°23' W 071°03'0 0.0
2017-Nov-19 15:57N 42°23' W 071°03'0 0.0
2017-Nov-19 15:27N 42°23' W 071°03'0 0.0
2017-Nov-19 14:57N 42°23' W 071°03'0 0.0
2017-Nov-19 14:21N 42°23' W 071°03'0 0.0
2017-Nov-19 13:03N 42°23' W 071°03'0 0.0
2017-Nov-19 12:51N 42°23' W 071°03'0 0.0
2017-Nov-19 12:21N 42°23' W 071°03'0 0.0
2017-Nov-19 10:45N 42°23' W 071°03'0 0.0
2017-Nov-19 10:21N 42°23' W 071°03'0 0.0
2017-Nov-19 09:57N 42°23' W 071°03'0 0.0
2017-Nov-19 08:39N 42°23' W 071°03'0 0.0
2017-Nov-19 08:03N 42°23' W 071°03'0 0.0
2017-Nov-19 07:39N 42°23' W 071°03'0 0.0
2017-Nov-19 05:33N 42°23' W 071°03'0 0.0
2017-Nov-19 05:27N 42°23' W 071°03'0 0.0
2017-Nov-19 04:57N 42°23' W 071°03'0 0.0
2017-Nov-19 04:27N 42°23' W 071°03'0 0.0
2017-Nov-19 03:57N 42°23' W 071°03'0 0.0
2017-Nov-19 03:30N 42°23' W 071°03'0 0.0
2017-Nov-19 02:54N 42°23' W 071°03'0 0.0
2017-Nov-19 02:30N 42°23' W 071°03'0 0.0
2017-Nov-19 01:51N 42°23' W 071°03'0 0.0
2017-Nov-19 01:27N 42°23' W 071°03'2 4.9
2017-Nov-19 01:00N 42°21' W 071°01'4 8.7
2017-Nov-19 00:30N 42°22' W 070°56'5 9.9
2017-Nov-19 00:00N 42°23' W 070°49'510.1
2017-Nov-18 23:30N 42°23' W 070°42'510.1
2017-Nov-18 23:01N 42°23' W 070°35'2 4.9
2017-Nov-18 22:30N 42°22' W 070°33'1 2.2
2017-Nov-18 22:00N 42°23' W 070°32'1 1.0
2017-Nov-18 21:30N 42°22' W 070°32'1 1.1
2017-Nov-18 21:01N 42°22' W 070°32'2 3.1
2017-Nov-18 20:30N 42°23' W 070°33'1 1.0
2017-Nov-18 20:00N 42°23' W 070°33'1 2.2
2017-Nov-18 19:30N 42°22' W 070°33'1 1.1
2017-Nov-18 19:00N 42°22' W 070°32'1 1.4
2017-Nov-18 18:30N 42°21' W 070°32'0 0.2
2017-Nov-18 18:01N 42°21' W 070°32'1 2.4
2017-Nov-18 17:30N 42°23' W 070°33'0 0.9
2017-Nov-18 17:00N 42°22' W 070°32'1 2.1
2017-Nov-18 16:30N 42°21' W 070°33'2 3.9
2017-Nov-18 16:00N 42°23' W 070°34'0 0.3
2017-Nov-18 15:30N 42°23' W 070°34'5 9.6
2017-Nov-18 15:00N 42°23' W 070°40'5 9.9
2017-Nov-18 14:30N 42°23' W 070°47'5 9.6
2017-Nov-18 14:00N 42°23' W 070°53'4 8.4
2017-Nov-18 13:30N 42°20' W 070°58'4 8.4
2017-Nov-18 13:00N 42°22' W 071°03'1 1.6
2017-Nov-18 12:30N 42°23' W 071°03'0 0.0
2017-Nov-18 11:57N 42°23' W 071°03'0 0.0
2017-Nov-18 11:27N 42°23' W 071°03'0 0.0
2017-Nov-18 11:00N 42°23' W 071°03'0 0.0
2017-Nov-18 10:30N 42°23' W 071°03'0 0.0
2017-Nov-18 10:00N 42°23' W 071°03'0 0.0
2017-Nov-18 09:30N 42°23' W 071°03'0 0.0
2017-Nov-18 08:57N 42°23' W 071°03'0 0.0
2017-Nov-18 08:30N 42°23' W 071°03'0 0.0
2017-Nov-18 08:00N 42°23' W 071°03'0 0.0
2017-Nov-18 07:30N 42°23' W 071°03'0 0.0
2017-Nov-18 07:00N 42°23' W 071°03'0 0.0
2017-Nov-18 06:30N 42°23' W 071°03'0 0.0
2017-Nov-18 06:00N 42°23' W 071°03'0 0.0
2017-Nov-18 05:30N 42°23' W 071°03'0 0.0
2017-Nov-18 04:54N 42°23' W 071°03'0 0.0
2017-Nov-18 04:24N 42°23' W 071°03'0 0.0
2017-Nov-18 03:54N 42°23' W 071°03'0 0.0
2017-Nov-18 03:30N 42°23' W 071°03'0 0.0
2017-Nov-18 02:48N 42°23' W 071°03'0 0.0
2017-Nov-18 02:30N 42°23' W 071°03'0 0.0
2017-Nov-18 01:54N 42°23' W 071°03'0 0.0
2017-Nov-18 01:30N 42°23' W 071°03'0 0.0
2017-Nov-18 01:00N 42°23' W 071°03'0 0.0
2017-Nov-18 00:30N 42°23' W 071°03'0 0.0
2017-Nov-18 00:00N 42°23' W 071°03'0 0.0
2017-Nov-17 23:30N 42°23' W 071°03'0 0.0
2017-Nov-17 23:00N 42°23' W 071°03'0 0.0
2017-Nov-17 22:30N 42°23' W 071°03'0 0.0
2017-Nov-17 22:00N 42°23' W 071°03'0 0.0
2017-Nov-17 21:30N 42°23' W 071°03'0 0.0
2017-Nov-17 20:56N 42°23' W 071°03'0 0.0
2017-Nov-17 18:18N 42°23' W 071°03'0 0.0
2017-Nov-17 16:36N 42°23' W 071°03'0 0.0
2017-Nov-17 16:29N 42°23' W 071°03'0 0.0
2017-Nov-17 15:54N 42°23' W 071°03'0 0.0
2017-Nov-17 14:03N 42°23' W 071°03'0 0.0
2017-Nov-17 13:44N 42°23' W 071°03'0 0.0
2017-Nov-17 13:30N 42°23' W 071°03'0 0.0
2017-Nov-17 12:48N 42°23' W 071°03'0 0.0
2017-Nov-17 12:30N 42°23' W 071°03'0 0.0
2017-Nov-17 12:00N 42°23' W 071°03'0 0.0
2017-Nov-17 11:18N 42°23' W 071°03'0 0.0
2017-Nov-17 11:00N 42°23' W 071°03'0 0.0
2017-Nov-17 10:27N 42°23' W 071°03'0 0.0
2017-Nov-17 10:00N 42°23' W 071°03'0 0.0
2017-Nov-17 09:30N 42°23' W 071°03'0 0.0
2017-Nov-17 09:00N 42°23' W 071°03'0 0.0
2017-Nov-17 08:29N 42°23' W 071°03'0 0.0
2017-Nov-17 07:59N 42°23' W 071°03'0 0.0
2017-Nov-17 07:29N 42°23' W 071°03'0 0.0
2017-Nov-17 06:59N 42°23' W 071°03'0 0.0
2017-Nov-17 06:30N 42°23' W 071°03'0 0.0
2017-Nov-17 06:00N 42°23' W 071°03'0 0.0
2017-Nov-17 05:27N 42°23' W 071°03'0 0.0
2017-Nov-17 05:00N 42°23' W 071°03'0 0.0
2017-Nov-17 04:29N 42°23' W 071°03'0 0.0
2017-Nov-17 03:59N 42°23' W 071°03'0 0.0
2017-Nov-17 03:29N 42°23' W 071°03'0 0.0
2017-Nov-17 02:59N 42°23' W 071°03'0 0.0
2017-Nov-17 02:29N 42°23' W 071°03'0 0.0
2017-Nov-17 01:59N 42°23' W 071°03'0 0.0
2017-Nov-17 01:29N 42°23' W 071°03'0 0.0
2017-Nov-17 00:59N 42°23' W 071°03'0 0.0
2017-Nov-17 00:26N 42°23' W 071°03'0 0.0
2017-Nov-17 00:00N 42°23' W 071°03'0 0.0
2017-Nov-16 23:30N 42°23' W 071°03'0 0.0
2017-Nov-16 23:00N 42°23' W 071°03'0 0.0
2017-Nov-16 22:29N 42°23' W 071°03'0 0.0
2017-Nov-16 21:59N 42°23' W 071°03'0 0.0
2017-Nov-16 21:17N 42°23' W 071°03'0 0.0
2017-Nov-16 20:59N 42°23' W 071°03'0 0.0
2017-Nov-16 20:29N 42°23' W 071°03'0 0.0
2017-Nov-16 19:59N 42°23' W 071°03'0 0.0
2017-Nov-16 19:29N 42°23' W 071°03'0 0.0
2017-Nov-16 18:56N 42°23' W 071°03'0 0.0
2017-Nov-16 18:14N 42°23' W 071°03'0 0.0
2017-Nov-16 17:59N 42°23' W 071°03'0 0.0
2017-Nov-16 17:29N 42°23' W 071°03'0 0.0
2017-Nov-16 16:54N 42°23' W 071°03'1 2.8
2017-Nov-16 16:30N 42°22' W 071°03'4 8.5
2017-Nov-16 16:00N 42°20' W 070°57'5 9.0
2017-Nov-16 15:30N 42°23' W 070°53'4 9.0
2017-Nov-16 15:00N 42°24' W 070°47'4 8.6
2017-Nov-16 14:30N 42°24' W 070°41'4 8.8
2017-Nov-16 14:00N 42°23' W 070°35'1 2.7
2017-Nov-16 13:30N 42°23' W 070°34'1 1.0
2017-Nov-16 13:00N 42°22' W 070°33'1 1.3
2017-Nov-16 12:30N 42°23' W 070°33'2 3.2
2017-Nov-16 12:00N 42°24' W 070°34'1 1.2
2017-Nov-16 11:30N 42°24' W 070°35'0 0.9
2017-Nov-16 11:01N 42°24' W 070°35'1 1.1
2017-Nov-16 10:30N 42°23' W 070°34'1 1.1
2017-Nov-16 10:00N 42°23' W 070°33'1 2.1
2017-Nov-16 09:30N 42°22' W 070°33'2 3.6
2017-Nov-16 09:00N 42°23' W 070°35'0 0.9
2017-Nov-16 08:30N 42°23' W 070°35'0 0.9
2017-Nov-16 08:00N 42°22' W 070°34'0 0.7
2017-Nov-16 07:30N 42°22' W 070°34'1 1.9
2017-Nov-16 07:00N 42°23' W 070°35'0 0.7
2017-Nov-16 06:30N 42°23' W 070°34'0 0.6
2017-Nov-16 06:00N 42°22' W 070°34'0 0.4
2017-Nov-16 05:30N 42°22' W 070°34'0 0.2
2017-Nov-16 05:01N 42°22' W 070°34'0 0.2
2017-Nov-16 04:31N 42°22' W 070°34'0 0.3
2017-Nov-16 04:00N 42°22' W 070°34'0 0.3
2017-Nov-16 03:30N 42°22' W 070°34'1 1.0
2017-Nov-16 03:00N 42°22' W 070°34'2 3.4
2017-Nov-16 02:30N 42°22' W 070°36'0 0.5
2017-Nov-16 02:00N 42°22' W 070°36'0 0.6
2017-Nov-16 01:30N 42°22' W 070°36'0 0.6
2017-Nov-16 00:59N 42°22' W 070°35'0 0.6
2017-Nov-16 00:30N 42°22' W 070°35'0 0.6
2017-Nov-16 00:00N 42°22' W 070°34'0 0.7
2017-Nov-15 23:30N 42°22' W 070°34'0 0.9
2017-Nov-15 23:00N 42°22' W 070°35'1 2.5
2017-Nov-15 22:30N 42°22' W 070°36'0 0.7
2017-Nov-15 22:00N 42°22' W 070°36'0 0.7
2017-Nov-15 21:30N 42°22' W 070°35'0 0.3
2017-Nov-15 21:00N 42°22' W 070°35'0 0.4
2017-Nov-15 20:30N 42°22' W 070°36'0 0.7
2017-Nov-15 20:00N 42°22' W 070°35'0 0.5
2017-Nov-15 19:30N 42°22' W 070°35'0 0.9
2017-Nov-15 19:00N 42°22' W 070°36'1 2.3
2017-Nov-15 18:30N 42°22' W 070°37'1 3.0
2017-Nov-15 18:00N 42°22' W 070°36'1 2.9
2017-Nov-15 17:30N 42°23' W 070°34'0 0.9
2017-Nov-15 17:00N 42°22' W 070°34'1 1.2
2017-Nov-15 16:30N 42°23' W 070°34'1 2.2
2017-Nov-15 16:00N 42°24' W 070°33'1 2.5
2017-Nov-15 15:30N 42°23' W 070°34'0 0.6
2017-Nov-15 15:00N 42°23' W 070°34'4 8.1
2017-Nov-15 14:30N 42°23' W 070°39'5 9.1
2017-Nov-15 14:00N 42°23' W 070°45'4 8.4
2017-Nov-15 13:30N 42°23' W 070°51'5 8.5
2017-Nov-15 12:57N 42°20' W 070°56'4 7.9
2017-Nov-15 12:30N 42°21' W 071°01'3 0.8
2017-Nov-15 09:05N 42°23' W 071°03'0 0.0
2017-Nov-15 08:53N 42°23' W 071°03'0 0.0
2017-Nov-15 08:23N 42°23' W 071°03'0 0.0
2017-Nov-15 07:53N 42°23' W 071°03'0 0.0
2017-Nov-15 07:17N 42°23' W 071°03'0 0.0
2017-Nov-15 06:59N 42°23' W 071°03'0 0.0
2017-Nov-15 06:29N 42°23' W 071°03'0 0.0
2017-Nov-15 01:35N 42°23' W 071°03'0 0.0
2017-Nov-15 01:11N 42°23' W 071°03'0 0.0
2017-Nov-14 23:11N 42°23' W 071°03'0 0.0
2017-Nov-14 22:53N 42°23' W 071°03'0 0.0
2017-Nov-14 22:23N 42°23' W 071°03'0 0.0
2017-Nov-14 21:59N 42°23' W 071°03'0 0.0
2017-Nov-14 20:41N 42°23' W 071°03'0 0.0
2017-Nov-14 18:59N 42°23' W 071°03'0 0.0
2017-Nov-14 15:59N 42°23' W 071°03'0 0.0
2017-Nov-14 15:29N 42°23' W 071°03'0 0.0
2017-Nov-14 14:53N 42°23' W 071°03'0 0.0
2017-Nov-14 14:23N 42°23' W 071°03'0 0.0
2017-Nov-14 13:17N 42°23' W 071°03'0 0.0
2017-Nov-14 12:59N 42°23' W 071°03'0 0.0
2017-Nov-14 12:29N 42°23' W 071°03'0 0.0
2017-Nov-14 10:53N 42°23' W 071°03'0 0.0
2017-Nov-14 10:29N 42°23' W 071°03'0 0.0
2017-Nov-14 09:53N 42°23' W 071°03'0 0.0
2017-Nov-14 09:29N 42°23' W 071°03'0 0.0
2017-Nov-14 08:59N 42°23' W 071°03'0 0.0
2017-Nov-14 08:17N 42°23' W 071°03'0 0.0
2017-Nov-14 07:53N 42°23' W 071°03'0 0.0
2017-Nov-14 07:17N 42°23' W 071°03'0 0.0
2017-Nov-14 06:59N 42°23' W 071°03'0 0.0
2017-Nov-14 06:29N 42°23' W 071°03'0 0.0
2017-Nov-14 05:47N 42°23' W 071°03'0 0.0
2017-Nov-14 05:30N 42°23' W 071°03'2 5.0
2017-Nov-14 05:00N 42°21' W 071°01'2 4.7
2017-Nov-14 04:30N 42°20' W 070°58'4 7.9
2017-Nov-14 04:00N 42°23' W 070°54'5 9.6
2017-Nov-14 03:30N 42°25' W 070°48'4 9.0
2017-Nov-14 03:00N 42°26' W 070°42'4 7.7
2017-Nov-14 02:30N 42°26' W 070°37'3 6.8
2017-Nov-14 02:00N 42°24' W 070°33'1 2.4
2017-Nov-14 01:30N 42°23' W 070°32'2 3.3
2017-Nov-14 01:00N 42°22' W 070°33'0 0.7
2017-Nov-14 00:30N 42°22' W 070°33'0 0.9
2017-Nov-14 00:00N 42°23' W 070°32'0 0.2
2017-Nov-13 23:30N 42°23' W 070°32'0 0.7
2017-Nov-13 23:00N 42°22' W 070°32'0 0.9
2017-Nov-13 22:30N 42°23' W 070°32'0 0.9
2017-Nov-13 22:00N 42°23' W 070°32'11 0.5
2017-Nov-13 02:00N 42°21' W 070°47'0 0.3
2017-Nov-13 01:31N 42°21' W 070°47'4 7.7
2017-Nov-13 01:00N 42°23' W 070°42'4 8.6
2017-Nov-13 00:30N 42°24' W 070°37'3 5.3
2017-Nov-13 00:00N 42°24' W 070°33'0 0.1
2017-Nov-12 23:30N 42°24' W 070°33'1 1.5
2017-Nov-12 23:00N 42°23' W 070°33'0 0.8
2017-Nov-12 22:30N 42°23' W 070°33'0 0.7
2017-Nov-12 22:00N 42°23' W 070°33'1 1.4
2017-Nov-12 21:30N 42°24' W 070°33'0 0.5
2017-Nov-12 21:01N 42°24' W 070°33'0 0.7
2017-Nov-12 20:30N 42°24' W 070°33'0 0.5
2017-Nov-12 20:00N 42°24' W 070°33'0 0.6
2017-Nov-12 19:30N 42°23' W 070°32'0 0.7
2017-Nov-12 19:00N 42°23' W 070°32'0 0.9
2017-Nov-12 18:30N 42°23' W 070°33'1 1.6
2017-Nov-12 18:00N 42°23' W 070°34'2 4.5
2017-Nov-12 17:30N 42°23' W 070°37'5 9.1
2017-Nov-12 17:00N 42°24' W 070°43'5 9.1
2017-Nov-12 16:30N 42°25' W 070°49'2 3.4
2017-Nov-12 16:00N 42°25' W 070°51'0 0.0
2017-Nov-12 15:30N 42°25' W 070°51'0 0.1
2017-Nov-12 15:00N 42°25' W 070°51'0 0.1
2017-Nov-12 14:30N 42°25' W 070°51'0 0.1
2017-Nov-12 14:00N 42°25' W 070°51'0 0.2
2017-Nov-12 13:30N 42°25' W 070°51'0 0.8
2017-Nov-12 13:00N 42°25' W 070°51'0 0.3
2017-Nov-12 12:30N 42°25' W 070°51'0 0.2
2017-Nov-12 12:00N 42°25' W 070°51'1 2.9
2017-Nov-12 11:30N 42°24' W 070°52'0 0.8
2017-Nov-12 11:00N 42°24' W 070°52'4 7.6
2017-Nov-12 10:30N 42°23' W 070°47'4 8.8
2017-Nov-12 10:00N 42°23' W 070°41'4 8.6
2017-Nov-12 09:30N 42°23' W 070°35'2 3.1
2017-Nov-12 09:00N 42°24' W 070°33'1 1.2
2017-Nov-12 08:30N 42°23' W 070°34'1 1.9
2017-Nov-12 08:00N 42°23' W 070°33'1 2.1
2017-Nov-12 07:30N 42°22' W 070°33'0 0.7
2017-Nov-12 07:00N 42°22' W 070°33'0 0.4
2017-Nov-12 06:30N 42°22' W 070°33'1 1.6
2017-Nov-12 06:00N 42°23' W 070°32'0 0.4
2017-Nov-12 05:30N 42°22' W 070°32'0 0.4
2017-Nov-12 05:00N 42°23' W 070°32'0 0.5
2017-Nov-12 04:30N 42°23' W 070°32'0 0.5
2017-Nov-12 04:00N 42°22' W 070°32'1 1.7
2017-Nov-12 03:30N 42°22' W 070°33'1 1.2
2017-Nov-12 03:00N 42°22' W 070°33'0 0.4
2017-Nov-12 02:30N 42°22' W 070°33'0 0.4
2017-Nov-12 02:00N 42°22' W 070°33'0 0.4
2017-Nov-12 01:30N 42°22' W 070°33'0 0.3
2017-Nov-12 01:00N 42°22' W 070°33'0 0.4
2017-Nov-12 00:30N 42°22' W 070°33'0 0.4
2017-Nov-12 00:00N 42°22' W 070°33'0 0.5
2017-Nov-11 23:30N 42°22' W 070°33'1 1.7
2017-Nov-11 23:00N 42°21' W 070°33'0 0.6
2017-Nov-11 22:30N 42°22' W 070°33'0 0.6
2017-Nov-11 22:00N 42°22' W 070°33'0 0.4
2017-Nov-11 21:30N 42°22' W 070°33'1 1.3
2017-Nov-11 21:00N 42°22' W 070°33'0 0.5
2017-Nov-11 20:30N 42°22' W 070°33'0 0.4
2017-Nov-11 20:00N 42°22' W 070°33'0 0.3
2017-Nov-11 19:29N 42°22' W 070°33'0 0.3
2017-Nov-11 19:00N 42°22' W 070°33'1 2.8
2017-Nov-11 18:30N 42°21' W 070°34'0 0.5
2017-Nov-11 18:00N 42°21' W 070°34'0 0.9
2017-Nov-11 17:30N 42°22' W 070°34'1 1.1
2017-Nov-11 17:00N 42°22' W 070°34'1 1.6
2017-Nov-11 16:30N 42°23' W 070°34'0 0.2
2017-Nov-11 16:00N 42°23' W 070°34'3 6.8
2017-Nov-11 15:30N 42°23' W 070°38'5 9.2
2017-Nov-11 15:00N 42°23' W 070°45'5 9.3
2017-Nov-11 14:30N 42°23' W 070°51'7 9.2
2017-Nov-11 13:47N 42°20' W 070°59'3 9.2
2017-Nov-11 13:30N 42°21' W 071°02'2 2.6
2017-Nov-11 12:50N 42°23' W 071°03'0 0.0
2017-Nov-11 12:23N 42°23' W 071°03'0 0.0
2017-Nov-11 11:47N 42°23' W 071°03'0 0.0
2017-Nov-11 11:29N 42°23' W 071°03'0 0.0
2017-Nov-11 10:59N 42°23' W 071°03'0 0.0
2017-Nov-11 10:29N 42°23' W 071°03'0 0.0
2017-Nov-11 09:47N 42°23' W 071°03'0 0.0
2017-Nov-11 09:14N 42°23' W 071°03'0 0.0
2017-Nov-11 08:59N 42°23' W 071°03'0 0.0
2017-Nov-11 08:29N 42°23' W 071°03'0 0.0
2017-Nov-11 07:38N 42°23' W 071°03'0 0.0
2017-Nov-11 07:26N 42°23' W 071°03'0 0.0
2017-Nov-11 06:59N 42°23' W 071°03'0 0.0
2017-Nov-11 06:26N 42°23' W 071°03'0 0.0
2017-Nov-11 05:56N 42°23' W 071°03'0 0.0
2017-Nov-11 05:29N 42°23' W 071°03'0 0.0
2017-Nov-11 04:56N 42°23' W 071°03'0 0.0
2017-Nov-11 04:23N 42°23' W 071°03'0 0.0
2017-Nov-11 03:53N 42°23' W 071°03'0 0.0
2017-Nov-11 03:17N 42°23' W 071°03'0 0.0
2017-Nov-11 02:50N 42°23' W 071°03'0 0.0
2017-Nov-11 02:26N 42°23' W 071°03'0 0.0
2017-Nov-10 22:53N 42°23' W 071°03'0 0.0
2017-Nov-10 22:29N 42°23' W 071°03'0 0.0
2017-Nov-10 21:35N 42°23' W 071°03'0 0.0
2017-Nov-10 21:14N 42°23' W 071°03'0 0.0
2017-Nov-10 20:56N 42°23' W 071°03'0 0.0
2017-Nov-10 20:11N 42°23' W 071°03'0 0.0
2017-Nov-10 19:28N 42°23' W 071°03'0 0.0
2017-Nov-10 18:25N 42°23' W 071°03'0 0.0
2017-Nov-10 17:58N 42°23' W 071°03'0 0.0
2017-Nov-10 17:28N 42°23' W 071°03'0 0.0
2017-Nov-10 16:04N 42°23' W 071°03'0 0.0
2017-Nov-10 15:46N 42°23' W 071°03'0 0.0
2017-Nov-10 14:34N 42°23' W 071°03'0 0.0
2017-Nov-10 14:16N 42°23' W 071°03'0 0.0
2017-Nov-10 13:16N 42°23' W 071°03'0 0.0
2017-Nov-10 12:57N 42°23' W 071°03'0 0.0
2017-Nov-10 12:25N 42°23' W 071°03'0 0.0
2017-Nov-10 11:37N 42°23' W 071°03'0 0.0
2017-Nov-10 10:16N 42°23' W 071°03'0 0.0
2017-Nov-10 09:52N 42°23' W 071°03'0 0.0
2017-Nov-10 09:28N 42°23' W 071°03'0 0.0
2017-Nov-10 08:01N 42°23' W 071°03'  

Dump ship's entire track history